sensor_id;sensor_type;location;lat;lon;timestamp;P1;durP1;ratioP1;P2;durP2;ratioP2
801;SDS011;383;48.766;9.270;2022-07-29T00:00:37;13.37;;;8.40;;
801;SDS011;383;48.766;9.270;2022-07-29T00:03:04;15.43;;;7.40;;
801;SDS011;383;48.766;9.270;2022-07-29T00:05:30;9.23;;;7.70;;
801;SDS011;383;48.766;9.270;2022-07-29T00:07:57;13.27;;;8.13;;
801;SDS011;383;48.766;9.270;2022-07-29T00:10:24;11.13;;;7.60;;
801;SDS011;383;48.766;9.270;2022-07-29T00:12:52;11.40;;;7.80;;
801;SDS011;383;48.766;9.270;2022-07-29T00:15:18;16.00;;;9.00;;
801;SDS011;383;48.766;9.270;2022-07-29T00:17:45;11.97;;;8.97;;
801;SDS011;383;48.766;9.270;2022-07-29T00:20:12;19.83;;;8.60;;
801;SDS011;383;48.766;9.270;2022-07-29T00:22:39;10.57;;;8.00;;
801;SDS011;383;48.766;9.270;2022-07-29T00:25:07;14.60;;;7.90;;
801;SDS011;383;48.766;9.270;2022-07-29T00:27:34;17.70;;;8.97;;
801;SDS011;383;48.766;9.270;2022-07-29T00:30:02;12.53;;;8.37;;
801;SDS011;383;48.766;9.270;2022-07-29T00:32:30;12.03;;;8.10;;
801;SDS011;383;48.766;9.270;2022-07-29T00:34:57;15.33;;;7.97;;
801;SDS011;383;48.766;9.270;2022-07-29T00:37:41;10.20;;;8.10;;
801;SDS011;383;48.766;9.270;2022-07-29T00:40:08;13.00;;;8.37;;
801;SDS011;383;48.766;9.270;2022-07-29T00:42:41;16.67;;;8.50;;
801;SDS011;383;48.766;9.270;2022-07-29T00:45:10;11.27;;;7.93;;
801;SDS011;383;48.766;9.270;2022-07-29T00:47:37;9.80;;;7.53;;
801;SDS011;383;48.766;9.270;2022-07-29T00:50:04;10.70;;;8.40;;
801;SDS011;383;48.766;9.270;2022-07-29T00:52:32;13.77;;;8.77;;
801;SDS011;383;48.766;9.270;2022-07-29T00:55:02;13.90;;;8.13;;
801;SDS011;383;48.766;9.270;2022-07-29T00:57:29;11.80;;;7.40;;
801;SDS011;383;48.766;9.270;2022-07-29T00:59:56;14.73;;;7.60;;
801;SDS011;383;48.766;9.270;2022-07-29T01:02:24;12.93;;;7.57;;
801;SDS011;383;48.766;9.270;2022-07-29T01:04:51;14.77;;;8.50;;
801;SDS011;383;48.766;9.270;2022-07-29T01:07:18;11.63;;;8.57;;
801;SDS011;383;48.766;9.270;2022-07-29T01:09:45;12.00;;;8.73;;
801;SDS011;383;48.766;9.270;2022-07-29T01:12:13;10.67;;;8.10;;
801;SDS011;383;48.766;9.270;2022-07-29T01:14:43;13.10;;;7.70;;
801;SDS011;383;48.766;9.270;2022-07-29T01:17:12;10.77;;;7.77;;
801;SDS011;383;48.766;9.270;2022-07-29T01:19:47;9.93;;;7.60;;
801;SDS011;383;48.766;9.270;2022-07-29T01:22:25;15.50;;;9.03;;
801;SDS011;383;48.766;9.270;2022-07-29T01:25:20;17.10;;;8.57;;
801;SDS011;383;48.766;9.270;2022-07-29T01:28:08;9.87;;;7.17;;
801;SDS011;383;48.766;9.270;2022-07-29T01:30:49;12.93;;;8.17;;
801;SDS011;383;48.766;9.270;2022-07-29T01:33:17;12.17;;;7.87;;
801;SDS011;383;48.766;9.270;2022-07-29T01:36:02;11.17;;;7.87;;
801;SDS011;383;48.766;9.270;2022-07-29T01:38:36;10.10;;;8.23;;
801;SDS011;383;48.766;9.270;2022-07-29T01:41:06;10.27;;;7.70;;
801;SDS011;383;48.766;9.270;2022-07-29T01:43:37;13.57;;;8.07;;
801;SDS011;383;48.766;9.270;2022-07-29T01:46:09;13.53;;;8.63;;
801;SDS011;383;48.766;9.270;2022-07-29T01:48:42;10.53;;;8.00;;
801;SDS011;383;48.766;9.270;2022-07-29T01:51:12;11.93;;;8.10;;
801;SDS011;383;48.766;9.270;2022-07-29T01:53:45;11.17;;;7.50;;
801;SDS011;383;48.766;9.270;2022-07-29T01:56:18;12.70;;;8.23;;
801;SDS011;383;48.766;9.270;2022-07-29T01:58:46;13.10;;;7.83;;
801;SDS011;383;48.766;9.270;2022-07-29T02:01:15;11.03;;;8.30;;
801;SDS011;383;48.766;9.270;2022-07-29T02:03:43;13.50;;;9.13;;
801;SDS011;383;48.766;9.270;2022-07-29T02:06:12;10.40;;;7.60;;
801;SDS011;383;48.766;9.270;2022-07-29T02:08:41;13.23;;;8.00;;
801;SDS011;383;48.766;9.270;2022-07-29T02:11:10;12.40;;;7.93;;
801;SDS011;383;48.766;9.270;2022-07-29T02:13:37;9.73;;;7.73;;
801;SDS011;383;48.766;9.270;2022-07-29T02:16:05;12.20;;;8.60;;
801;SDS011;383;48.766;9.270;2022-07-29T02:18:35;11.90;;;8.73;;
801;SDS011;383;48.766;9.270;2022-07-29T02:21:03;13.93;;;8.33;;
801;SDS011;383;48.766;9.270;2022-07-29T02:23:31;14.43;;;8.03;;
801;SDS011;383;48.766;9.270;2022-07-29T02:26:00;12.10;;;8.00;;
801;SDS011;383;48.766;9.270;2022-07-29T02:28:29;12.27;;;7.97;;
801;SDS011;383;48.766;9.270;2022-07-29T02:30:57;12.83;;;7.67;;
801;SDS011;383;48.766;9.270;2022-07-29T02:33:26;13.53;;;8.23;;
801;SDS011;383;48.766;9.270;2022-07-29T02:35:56;10.30;;;8.07;;
801;SDS011;383;48.766;9.270;2022-07-29T02:38:25;10.27;;;8.10;;
801;SDS011;383;48.766;9.270;2022-07-29T02:41:12;9.67;;;7.27;;
801;SDS011;383;48.766;9.270;2022-07-29T02:43:44;11.70;;;7.50;;
801;SDS011;383;48.766;9.270;2022-07-29T02:46:16;12.00;;;7.50;;
801;SDS011;383;48.766;9.270;2022-07-29T02:48:48;11.73;;;7.70;;
801;SDS011;383;48.766;9.270;2022-07-29T02:51:26;17.50;;;7.53;;
801;SDS011;383;48.766;9.270;2022-07-29T02:53:58;8.83;;;7.10;;
801;SDS011;383;48.766;9.270;2022-07-29T02:56:28;16.10;;;6.90;;
801;SDS011;383;48.766;9.270;2022-07-29T02:59:00;9.37;;;7.20;;
801;SDS011;383;48.766;9.270;2022-07-29T03:01:30;11.30;;;7.20;;
801;SDS011;383;48.766;9.270;2022-07-29T03:04:00;12.27;;;7.77;;
801;SDS011;383;48.766;9.270;2022-07-29T03:06:31;10.23;;;6.60;;
801;SDS011;383;48.766;9.270;2022-07-29T03:08:59;11.43;;;7.63;;
801;SDS011;383;48.766;9.270;2022-07-29T03:11:27;10.00;;;6.77;;
801;SDS011;383;48.766;9.270;2022-07-29T03:13:55;10.23;;;6.90;;
801;SDS011;383;48.766;9.270;2022-07-29T03:16:23;10.70;;;6.50;;
801;SDS011;383;48.766;9.270;2022-07-29T03:18:50;13.83;;;7.77;;
801;SDS011;383;48.766;9.270;2022-07-29T03:21:18;9.00;;;6.83;;
801;SDS011;383;48.766;9.270;2022-07-29T03:23:46;8.67;;;6.93;;
801;SDS011;383;48.766;9.270;2022-07-29T03:26:13;9.90;;;7.63;;
801;SDS011;383;48.766;9.270;2022-07-29T03:28:40;10.10;;;6.20;;
801;SDS011;383;48.766;9.270;2022-07-29T03:31:06;9.63;;;7.40;;
801;SDS011;383;48.766;9.270;2022-07-29T03:33:33;8.60;;;6.47;;
801;SDS011;383;48.766;9.270;2022-07-29T03:36:00;7.60;;;6.20;;
801;SDS011;383;48.766;9.270;2022-07-29T03:38:27;10.40;;;7.67;;
801;SDS011;383;48.766;9.270;2022-07-29T03:41:01;13.17;;;7.27;;
801;SDS011;383;48.766;9.270;2022-07-29T03:43:35;10.73;;;7.43;;
801;SDS011;383;48.766;9.270;2022-07-29T03:46:04;7.97;;;6.70;;
801;SDS011;383;48.766;9.270;2022-07-29T03:48:33;11.00;;;7.57;;
801;SDS011;383;48.766;9.270;2022-07-29T03:51:02;10.23;;;7.63;;
801;SDS011;383;48.766;9.270;2022-07-29T03:53:29;8.87;;;6.60;;
801;SDS011;383;48.766;9.270;2022-07-29T03:55:58;14.10;;;7.00;;
801;SDS011;383;48.766;9.270;2022-07-29T03:58:28;11.00;;;7.70;;
801;SDS011;383;48.766;9.270;2022-07-29T04:00:56;9.40;;;6.77;;
801;SDS011;383;48.766;9.270;2022-07-29T04:03:23;8.80;;;6.17;;
801;SDS011;383;48.766;9.270;2022-07-29T04:06:00;9.27;;;6.50;;
801;SDS011;383;48.766;9.270;2022-07-29T04:08:27;12.00;;;6.70;;
801;SDS011;383;48.766;9.270;2022-07-29T04:10:54;10.50;;;6.80;;
801;SDS011;383;48.766;9.270;2022-07-29T04:13:23;10.67;;;7.47;;
801;SDS011;383;48.766;9.270;2022-07-29T04:15:49;12.87;;;7.10;;
801;SDS011;383;48.766;9.270;2022-07-29T04:18:16;8.50;;;5.83;;
801;SDS011;383;48.766;9.270;2022-07-29T04:20:43;10.60;;;6.33;;
801;SDS011;383;48.766;9.270;2022-07-29T04:23:09;8.13;;;6.20;;
801;SDS011;383;48.766;9.270;2022-07-29T04:25:37;8.80;;;6.67;;
801;SDS011;383;48.766;9.270;2022-07-29T04:28:04;12.70;;;8.07;;
801;SDS011;383;48.766;9.270;2022-07-29T04:30:33;8.97;;;5.63;;
801;SDS011;383;48.766;9.270;2022-07-29T04:33:01;7.90;;;6.77;;
801;SDS011;383;48.766;9.270;2022-07-29T04:35:28;11.73;;;7.40;;
801;SDS011;383;48.766;9.270;2022-07-29T04:37:55;8.77;;;6.43;;
801;SDS011;383;48.766;9.270;2022-07-29T04:40:22;9.20;;;7.17;;
801;SDS011;383;48.766;9.270;2022-07-29T04:42:49;10.27;;;6.43;;
801;SDS011;383;48.766;9.270;2022-07-29T04:45:16;12.80;;;8.10;;
801;SDS011;383;48.766;9.270;2022-07-29T04:47:44;8.33;;;6.13;;
801;SDS011;383;48.766;9.270;2022-07-29T04:50:11;10.73;;;7.33;;
801;SDS011;383;48.766;9.270;2022-07-29T04:52:38;10.83;;;5.90;;
801;SDS011;383;48.766;9.270;2022-07-29T04:55:05;9.97;;;6.57;;
801;SDS011;383;48.766;9.270;2022-07-29T04:57:32;11.43;;;6.77;;
801;SDS011;383;48.766;9.270;2022-07-29T04:59:59;8.60;;;6.60;;
801;SDS011;383;48.766;9.270;2022-07-29T05:02:25;13.10;;;7.43;;
801;SDS011;383;48.766;9.270;2022-07-29T05:04:53;13.60;;;7.77;;
801;SDS011;383;48.766;9.270;2022-07-29T05:07:20;11.70;;;8.30;;
801;SDS011;383;48.766;9.270;2022-07-29T05:09:47;12.50;;;7.23;;
801;SDS011;383;48.766;9.270;2022-07-29T05:12:14;11.07;;;8.00;;
801;SDS011;383;48.766;9.270;2022-07-29T05:14:40;13.17;;;7.40;;
801;SDS011;383;48.766;9.270;2022-07-29T05:17:07;9.07;;;7.03;;
801;SDS011;383;48.766;9.270;2022-07-29T05:19:34;12.43;;;8.50;;
801;SDS011;383;48.766;9.270;2022-07-29T05:22:02;11.50;;;7.63;;
801;SDS011;383;48.766;9.270;2022-07-29T05:24:29;9.03;;;7.30;;
801;SDS011;383;48.766;9.270;2022-07-29T05:26:55;8.70;;;6.80;;
801;SDS011;383;48.766;9.270;2022-07-29T05:29:22;10.83;;;7.33;;
801;SDS011;383;48.766;9.270;2022-07-29T05:31:48;10.90;;;7.80;;
801;SDS011;383;48.766;9.270;2022-07-29T05:34:16;14.37;;;9.60;;
801;SDS011;383;48.766;9.270;2022-07-29T05:36:43;10.03;;;7.40;;
801;SDS011;383;48.766;9.270;2022-07-29T05:39:12;9.03;;;6.57;;
801;SDS011;383;48.766;9.270;2022-07-29T05:41:38;9.60;;;5.70;;
801;SDS011;383;48.766;9.270;2022-07-29T05:44:05;8.60;;;5.40;;
801;SDS011;383;48.766;9.270;2022-07-29T05:46:32;8.47;;;6.10;;
801;SDS011;383;48.766;9.270;2022-07-29T05:48:58;12.90;;;6.03;;
801;SDS011;383;48.766;9.270;2022-07-29T05:51:25;7.43;;;5.30;;
801;SDS011;383;48.766;9.270;2022-07-29T05:53:52;6.60;;;5.27;;
801;SDS011;383;48.766;9.270;2022-07-29T05:56:20;7.47;;;4.80;;
801;SDS011;383;48.766;9.270;2022-07-29T05:58:47;5.97;;;5.17;;
801;SDS011;383;48.766;9.270;2022-07-29T06:01:14;5.97;;;4.67;;
801;SDS011;383;48.766;9.270;2022-07-29T06:03:41;12.07;;;6.13;;
801;SDS011;383;48.766;9.270;2022-07-29T06:06:08;11.00;;;6.23;;
801;SDS011;383;48.766;9.270;2022-07-29T06:08:35;8.40;;;6.30;;
801;SDS011;383;48.766;9.270;2022-07-29T06:11:02;9.63;;;6.30;;
801;SDS011;383;48.766;9.270;2022-07-29T06:13:31;7.40;;;5.47;;
801;SDS011;383;48.766;9.270;2022-07-29T06:15:58;9.20;;;5.57;;
801;SDS011;383;48.766;9.270;2022-07-29T06:18:24;8.00;;;5.73;;
801;SDS011;383;48.766;9.270;2022-07-29T06:20:52;12.60;;;6.40;;
801;SDS011;383;48.766;9.270;2022-07-29T06:23:20;8.03;;;5.60;;
801;SDS011;383;48.766;9.270;2022-07-29T06:25:47;9.33;;;5.37;;
801;SDS011;383;48.766;9.270;2022-07-29T06:28:14;16.97;;;6.20;;
801;SDS011;383;48.766;9.270;2022-07-29T06:30:41;7.27;;;4.90;;
801;SDS011;383;48.766;9.270;2022-07-29T06:33:08;8.10;;;5.53;;
801;SDS011;383;48.766;9.270;2022-07-29T06:35:35;7.77;;;4.80;;
801;SDS011;383;48.766;9.270;2022-07-29T06:38:04;7.30;;;5.67;;
801;SDS011;383;48.766;9.270;2022-07-29T06:40:30;7.77;;;4.97;;
801;SDS011;383;48.766;9.270;2022-07-29T06:43:14;5.30;;;4.23;;
801;SDS011;383;48.766;9.270;2022-07-29T06:45:43;5.93;;;4.77;;
801;SDS011;383;48.766;9.270;2022-07-29T06:48:09;5.90;;;4.67;;
801;SDS011;383;48.766;9.270;2022-07-29T06:50:36;6.50;;;4.20;;
801;SDS011;383;48.766;9.270;2022-07-29T06:53:03;4.93;;;4.67;;
801;SDS011;383;48.766;9.270;2022-07-29T06:55:30;9.13;;;4.37;;
801;SDS011;383;48.766;9.270;2022-07-29T06:57:57;7.83;;;4.40;;
801;SDS011;383;48.766;9.270;2022-07-29T07:00:24;6.07;;;4.00;;
801;SDS011;383;48.766;9.270;2022-07-29T07:02:52;6.73;;;4.27;;
801;SDS011;383;48.766;9.270;2022-07-29T07:05:19;8.53;;;4.43;;
801;SDS011;383;48.766;9.270;2022-07-29T07:07:46;9.77;;;4.03;;
801;SDS011;383;48.766;9.270;2022-07-29T07:10:12;5.43;;;4.00;;
801;SDS011;383;48.766;9.270;2022-07-29T07:12:39;6.00;;;4.50;;
801;SDS011;383;48.766;9.270;2022-07-29T07:15:06;6.10;;;3.87;;
801;SDS011;383;48.766;9.270;2022-07-29T07:17:33;4.03;;;3.90;;
801;SDS011;383;48.766;9.270;2022-07-29T07:20:01;8.30;;;3.77;;
801;SDS011;383;48.766;9.270;2022-07-29T07:22:29;12.03;;;4.07;;
801;SDS011;383;48.766;9.270;2022-07-29T07:24:56;11.50;;;4.10;;
801;SDS011;383;48.766;9.270;2022-07-29T07:27:23;5.97;;;4.30;;
801;SDS011;383;48.766;9.270;2022-07-29T07:29:49;5.63;;;4.47;;
801;SDS011;383;48.766;9.270;2022-07-29T07:32:16;5.37;;;4.23;;
801;SDS011;383;48.766;9.270;2022-07-29T07:34:43;6.83;;;4.50;;
801;SDS011;383;48.766;9.270;2022-07-29T07:37:11;8.43;;;4.10;;
801;SDS011;383;48.766;9.270;2022-07-29T07:39:39;9.10;;;4.80;;
801;SDS011;383;48.766;9.270;2022-07-29T07:42:06;5.50;;;4.07;;
801;SDS011;383;48.766;9.270;2022-07-29T07:44:33;6.80;;;4.73;;
801;SDS011;383;48.766;9.270;2022-07-29T07:46:59;11.10;;;5.77;;
801;SDS011;383;48.766;9.270;2022-07-29T07:49:26;7.70;;;5.53;;
801;SDS011;383;48.766;9.270;2022-07-29T07:51:53;9.30;;;5.67;;
801;SDS011;383;48.766;9.270;2022-07-29T07:54:21;6.30;;;4.70;;
801;SDS011;383;48.766;9.270;2022-07-29T07:56:47;7.93;;;4.80;;
801;SDS011;383;48.766;9.270;2022-07-29T07:59:14;7.90;;;4.53;;
801;SDS011;383;48.766;9.270;2022-07-29T08:01:41;6.90;;;4.90;;
801;SDS011;383;48.766;9.270;2022-07-29T08:04:08;7.00;;;5.40;;
801;SDS011;383;48.766;9.270;2022-07-29T08:06:35;6.43;;;4.70;;
801;SDS011;383;48.766;9.270;2022-07-29T08:09:02;7.90;;;5.37;;
801;SDS011;383;48.766;9.270;2022-07-29T08:11:31;8.40;;;5.13;;
801;SDS011;383;48.766;9.270;2022-07-29T08:13:57;8.53;;;5.50;;
801;SDS011;383;48.766;9.270;2022-07-29T08:16:26;7.30;;;4.67;;
801;SDS011;383;48.766;9.270;2022-07-29T08:18:53;11.53;;;4.63;;
801;SDS011;383;48.766;9.270;2022-07-29T08:21:22;7.47;;;4.47;;
801;SDS011;383;48.766;9.270;2022-07-29T08:23:50;7.10;;;5.10;;
801;SDS011;383;48.766;9.270;2022-07-29T08:26:39;5.57;;;4.03;;
801;SDS011;383;48.766;9.270;2022-07-29T08:29:06;6.87;;;5.30;;
801;SDS011;383;48.766;9.270;2022-07-29T08:31:33;7.93;;;4.73;;
801;SDS011;383;48.766;9.270;2022-07-29T08:33:59;6.07;;;4.47;;
801;SDS011;383;48.766;9.270;2022-07-29T08:36:27;8.50;;;5.37;;
801;SDS011;383;48.766;9.270;2022-07-29T08:38:54;6.47;;;4.10;;
801;SDS011;383;48.766;9.270;2022-07-29T08:41:21;6.73;;;5.00;;
801;SDS011;383;48.766;9.270;2022-07-29T08:43:49;6.90;;;4.27;;
801;SDS011;383;48.766;9.270;2022-07-29T08:46:17;6.37;;;4.50;;
801;SDS011;383;48.766;9.270;2022-07-29T08:48:44;5.80;;;4.77;;
801;SDS011;383;48.766;9.270;2022-07-29T08:51:12;7.37;;;5.03;;
801;SDS011;383;48.766;9.270;2022-07-29T08:53:41;7.17;;;4.90;;
801;SDS011;383;48.766;9.270;2022-07-29T08:56:11;8.40;;;5.20;;
801;SDS011;383;48.766;9.270;2022-07-29T08:58:38;6.70;;;5.03;;
801;SDS011;383;48.766;9.270;2022-07-29T09:01:06;7.27;;;4.80;;
801;SDS011;383;48.766;9.270;2022-07-29T09:03:36;6.40;;;4.90;;
801;SDS011;383;48.766;9.270;2022-07-29T09:06:04;11.13;;;5.00;;
801;SDS011;383;48.766;9.270;2022-07-29T09:08:31;8.63;;;4.60;;
801;SDS011;383;48.766;9.270;2022-07-29T09:11:00;8.00;;;4.70;;
801;SDS011;383;48.766;9.270;2022-07-29T09:13:28;5.50;;;4.20;;
801;SDS011;383;48.766;9.270;2022-07-29T09:15:54;13.60;;;5.20;;
801;SDS011;383;48.766;9.270;2022-07-29T09:18:35;23.37;;;13.60;;
801;SDS011;383;48.766;9.270;2022-07-29T09:21:03;7.97;;;6.37;;
801;SDS011;383;48.766;9.270;2022-07-29T09:23:59;6.93;;;4.20;;
801;SDS011;383;48.766;9.270;2022-07-29T09:26:27;5.70;;;5.10;;
801;SDS011;383;48.766;9.270;2022-07-29T09:28:55;8.60;;;5.70;;
801;SDS011;383;48.766;9.270;2022-07-29T09:31:26;10.47;;;5.03;;
801;SDS011;383;48.766;9.270;2022-07-29T09:34:00;6.10;;;4.87;;
801;SDS011;383;48.766;9.270;2022-07-29T09:36:27;15.50;;;6.13;;
801;SDS011;383;48.766;9.270;2022-07-29T09:38:57;7.27;;;5.50;;
801;SDS011;383;48.766;9.270;2022-07-29T09:41:25;8.73;;;5.27;;
801;SDS011;383;48.766;9.270;2022-07-29T09:43:53;7.73;;;5.13;;
801;SDS011;383;48.766;9.270;2022-07-29T09:46:21;8.20;;;5.47;;
801;SDS011;383;48.766;9.270;2022-07-29T09:51:35;9.27;;;5.30;;
801;SDS011;383;48.766;9.270;2022-07-29T09:54:02;7.80;;;5.43;;
801;SDS011;383;48.766;9.270;2022-07-29T09:56:47;12.87;;;5.90;;
801;SDS011;383;48.766;9.270;2022-07-29T09:59:15;12.60;;;6.97;;
801;SDS011;383;48.766;9.270;2022-07-29T10:01:42;6.00;;;5.20;;
801;SDS011;383;48.766;9.270;2022-07-29T10:04:10;9.33;;;6.43;;
801;SDS011;383;48.766;9.270;2022-07-29T10:06:42;7.43;;;4.83;;
801;SDS011;383;48.766;9.270;2022-07-29T10:09:21;6.97;;;4.87;;
801;SDS011;383;48.766;9.270;2022-07-29T10:12:01;10.60;;;5.70;;
801;SDS011;383;48.766;9.270;2022-07-29T10:14:29;7.97;;;6.60;;
801;SDS011;383;48.766;9.270;2022-07-29T10:16:58;6.20;;;5.03;;
801;SDS011;383;48.766;9.270;2022-07-29T10:19:27;8.10;;;5.83;;
801;SDS011;383;48.766;9.270;2022-07-29T10:21:55;12.13;;;5.53;;
801;SDS011;383;48.766;9.270;2022-07-29T10:24:22;9.27;;;5.30;;
801;SDS011;383;48.766;9.270;2022-07-29T10:26:50;9.40;;;5.43;;
801;SDS011;383;48.766;9.270;2022-07-29T10:29:18;8.30;;;5.67;;
801;SDS011;383;48.766;9.270;2022-07-29T10:31:48;9.67;;;6.30;;
801;SDS011;383;48.766;9.270;2022-07-29T10:34:31;5.93;;;5.03;;
801;SDS011;383;48.766;9.270;2022-07-29T10:37:07;8.23;;;6.07;;
801;SDS011;383;48.766;9.270;2022-07-29T10:39:45;11.70;;;5.87;;
801;SDS011;383;48.766;9.270;2022-07-29T10:42:21;7.80;;;5.73;;
801;SDS011;383;48.766;9.270;2022-07-29T10:44:50;9.00;;;6.20;;
801;SDS011;383;48.766;9.270;2022-07-29T10:47:22;11.47;;;6.50;;
801;SDS011;383;48.766;9.270;2022-07-29T10:49:56;12.37;;;5.90;;
801;SDS011;383;48.766;9.270;2022-07-29T10:52:23;12.97;;;6.13;;
801;SDS011;383;48.766;9.270;2022-07-29T10:54:52;10.60;;;6.80;;
801;SDS011;383;48.766;9.270;2022-07-29T10:57:23;6.70;;;5.53;;
801;SDS011;383;48.766;9.270;2022-07-29T11:02:56;7.80;;;5.97;;
801;SDS011;383;48.766;9.270;2022-07-29T11:05:26;9.03;;;5.97;;
801;SDS011;383;48.766;9.270;2022-07-29T11:10:53;11.83;;;6.63;;
801;SDS011;383;48.766;9.270;2022-07-29T11:14:02;15.03;;;7.40;;
801;SDS011;383;48.766;9.270;2022-07-29T11:16:57;9.50;;;7.70;;
801;SDS011;383;48.766;9.270;2022-07-29T11:19:28;9.37;;;6.90;;
801;SDS011;383;48.766;9.270;2022-07-29T11:21:56;17.33;;;5.53;;
801;SDS011;383;48.766;9.270;2022-07-29T11:24:24;14.20;;;6.97;;
801;SDS011;383;48.766;9.270;2022-07-29T11:27:12;15.70;;;9.40;;
801;SDS011;383;48.766;9.270;2022-07-29T11:29:51;14.57;;;6.60;;
801;SDS011;383;48.766;9.270;2022-07-29T11:32:19;17.73;;;7.40;;
801;SDS011;383;48.766;9.270;2022-07-29T11:34:48;18.73;;;7.67;;
801;SDS011;383;48.766;9.270;2022-07-29T11:37:17;23.73;;;6.33;;
801;SDS011;383;48.766;9.270;2022-07-29T11:39:47;14.60;;;3.87;;
801;SDS011;383;48.766;9.270;2022-07-29T11:42:44;12.03;;;4.40;;
801;SDS011;383;48.766;9.270;2022-07-29T11:45:13;8.37;;;4.67;;
801;SDS011;383;48.766;9.270;2022-07-29T11:47:46;16.43;;;5.90;;
801;SDS011;383;48.766;9.270;2022-07-29T11:50:15;9.03;;;4.00;;
801;SDS011;383;48.766;9.270;2022-07-29T11:52:46;11.40;;;4.90;;
801;SDS011;383;48.766;9.270;2022-07-29T11:55:14;15.53;;;6.60;;
801;SDS011;383;48.766;9.270;2022-07-29T11:57:45;14.40;;;5.10;;
801;SDS011;383;48.766;9.270;2022-07-29T12:00:20;9.73;;;5.03;;
801;SDS011;383;48.766;9.270;2022-07-29T12:02:49;10.13;;;5.40;;
801;SDS011;383;48.766;9.270;2022-07-29T12:05:16;10.30;;;5.57;;
801;SDS011;383;48.766;9.270;2022-07-29T12:07:46;7.53;;;4.10;;
801;SDS011;383;48.766;9.270;2022-07-29T12:10:13;4.63;;;3.80;;
801;SDS011;383;48.766;9.270;2022-07-29T12:12:40;10.93;;;4.40;;
801;SDS011;383;48.766;9.270;2022-07-29T12:15:11;7.90;;;3.70;;
801;SDS011;383;48.766;9.270;2022-07-29T12:17:39;7.10;;;4.50;;
801;SDS011;383;48.766;9.270;2022-07-29T12:20:06;8.40;;;4.37;;
801;SDS011;383;48.766;9.270;2022-07-29T12:22:34;7.67;;;3.90;;
801;SDS011;383;48.766;9.270;2022-07-29T12:25:06;15.70;;;6.43;;
801;SDS011;383;48.766;9.270;2022-07-29T12:27:34;7.60;;;4.60;;
801;SDS011;383;48.766;9.270;2022-07-29T12:30:03;10.43;;;5.13;;
801;SDS011;383;48.766;9.270;2022-07-29T12:32:32;8.00;;;5.10;;
801;SDS011;383;48.766;9.270;2022-07-29T12:34:59;9.30;;;5.33;;
801;SDS011;383;48.766;9.270;2022-07-29T12:37:29;10.57;;;5.97;;
801;SDS011;383;48.766;9.270;2022-07-29T12:39:56;8.97;;;5.10;;
801;SDS011;383;48.766;9.270;2022-07-29T12:42:24;13.43;;;5.50;;
801;SDS011;383;48.766;9.270;2022-07-29T12:44:51;10.10;;;6.30;;
801;SDS011;383;48.766;9.270;2022-07-29T12:47:18;6.80;;;4.30;;
801;SDS011;383;48.766;9.270;2022-07-29T12:49:46;6.73;;;4.50;;
801;SDS011;383;48.766;9.270;2022-07-29T12:52:22;8.83;;;5.20;;
801;SDS011;383;48.766;9.270;2022-07-29T12:54:50;11.17;;;5.20;;
801;SDS011;383;48.766;9.270;2022-07-29T12:57:17;15.20;;;5.03;;
801;SDS011;383;48.766;9.270;2022-07-29T12:59:45;11.63;;;4.93;;
801;SDS011;383;48.766;9.270;2022-07-29T13:02:24;7.27;;;4.70;;
801;SDS011;383;48.766;9.270;2022-07-29T13:04:54;5.97;;;4.37;;
801;SDS011;383;48.766;9.270;2022-07-29T13:07:24;9.53;;;5.20;;
801;SDS011;383;48.766;9.270;2022-07-29T13:09:51;8.57;;;5.53;;
801;SDS011;383;48.766;9.270;2022-07-29T13:12:17;8.17;;;5.00;;
801;SDS011;383;48.766;9.270;2022-07-29T13:14:47;9.40;;;6.20;;
801;SDS011;383;48.766;9.270;2022-07-29T13:17:15;15.10;;;7.80;;
801;SDS011;383;48.766;9.270;2022-07-29T13:19:44;9.63;;;5.93;;
801;SDS011;383;48.766;9.270;2022-07-29T13:22:13;7.73;;;5.40;;
801;SDS011;383;48.766;9.270;2022-07-29T13:24:50;9.87;;;6.20;;
801;SDS011;383;48.766;9.270;2022-07-29T13:27:18;10.17;;;5.60;;
801;SDS011;383;48.766;9.270;2022-07-29T13:29:47;8.83;;;6.83;;
801;SDS011;383;48.766;9.270;2022-07-29T13:32:16;17.90;;;6.30;;
801;SDS011;383;48.766;9.270;2022-07-29T13:34:43;12.70;;;6.40;;
801;SDS011;383;48.766;9.270;2022-07-29T13:37:09;10.23;;;7.50;;
801;SDS011;383;48.766;9.270;2022-07-29T13:39:36;15.53;;;7.87;;
801;SDS011;383;48.766;9.270;2022-07-29T13:42:03;13.13;;;7.57;;
801;SDS011;383;48.766;9.270;2022-07-29T13:44:31;11.23;;;7.33;;
801;SDS011;383;48.766;9.270;2022-07-29T13:46:59;11.13;;;7.50;;
801;SDS011;383;48.766;9.270;2022-07-29T13:49:25;10.03;;;7.00;;
801;SDS011;383;48.766;9.270;2022-07-29T13:51:52;9.67;;;7.40;;
801;SDS011;383;48.766;9.270;2022-07-29T13:54:19;15.27;;;7.70;;
801;SDS011;383;48.766;9.270;2022-07-29T13:56:46;14.83;;;9.40;;
801;SDS011;383;48.766;9.270;2022-07-29T13:59:12;12.10;;;8.80;;
801;SDS011;383;48.766;9.270;2022-07-29T14:01:39;11.07;;;7.87;;
801;SDS011;383;48.766;9.270;2022-07-29T14:04:08;11.70;;;8.60;;
801;SDS011;383;48.766;9.270;2022-07-29T14:06:35;15.07;;;8.93;;
801;SDS011;383;48.766;9.270;2022-07-29T14:09:03;11.87;;;8.90;;
801;SDS011;383;48.766;9.270;2022-07-29T14:11:31;13.80;;;8.77;;
801;SDS011;383;48.766;9.270;2022-07-29T14:13:57;10.80;;;8.50;;
801;SDS011;383;48.766;9.270;2022-07-29T14:16:24;14.20;;;9.00;;
801;SDS011;383;48.766;9.270;2022-07-29T14:18:51;9.40;;;7.17;;
801;SDS011;383;48.766;9.270;2022-07-29T14:21:19;11.33;;;8.43;;
801;SDS011;383;48.766;9.270;2022-07-29T14:23:46;8.87;;;7.63;;
801;SDS011;383;48.766;9.270;2022-07-29T14:26:13;12.17;;;8.40;;
801;SDS011;383;48.766;9.270;2022-07-29T14:28:39;16.70;;;10.30;;
801;SDS011;383;48.766;9.270;2022-07-29T14:31:06;19.60;;;12.20;;
801;SDS011;383;48.766;9.270;2022-07-29T14:33:33;15.47;;;10.47;;
801;SDS011;383;48.766;9.270;2022-07-29T14:35:59;14.73;;;9.77;;
801;SDS011;383;48.766;9.270;2022-07-29T14:38:28;12.17;;;8.20;;
801;SDS011;383;48.766;9.270;2022-07-29T14:40:54;14.60;;;8.77;;
801;SDS011;383;48.766;9.270;2022-07-29T14:43:21;10.80;;;7.80;;
801;SDS011;383;48.766;9.270;2022-07-29T14:45:48;10.60;;;8.80;;
801;SDS011;383;48.766;9.270;2022-07-29T14:48:15;9.07;;;7.23;;
801;SDS011;383;48.766;9.270;2022-07-29T14:50:41;14.10;;;8.50;;
801;SDS011;383;48.766;9.270;2022-07-29T14:53:08;10.40;;;8.10;;
801;SDS011;383;48.766;9.270;2022-07-29T14:55:38;12.97;;;8.20;;
801;SDS011;383;48.766;9.270;2022-07-29T14:58:05;13.80;;;8.23;;
801;SDS011;383;48.766;9.270;2022-07-29T15:00:32;14.27;;;9.20;;
801;SDS011;383;48.766;9.270;2022-07-29T15:02:58;10.70;;;8.50;;
801;SDS011;383;48.766;9.270;2022-07-29T15:05:25;10.80;;;7.83;;
801;SDS011;383;48.766;9.270;2022-07-29T15:07:52;19.20;;;10.43;;
801;SDS011;383;48.766;9.270;2022-07-29T15:10:19;14.80;;;7.30;;
801;SDS011;383;48.766;9.270;2022-07-29T15:12:47;10.10;;;8.20;;
801;SDS011;383;48.766;9.270;2022-07-29T15:15:14;9.33;;;6.53;;
801;SDS011;383;48.766;9.270;2022-07-29T15:17:41;10.47;;;7.87;;
801;SDS011;383;48.766;9.270;2022-07-29T15:20:08;11.63;;;8.27;;
801;SDS011;383;48.766;9.270;2022-07-29T15:22:36;10.00;;;7.77;;
801;SDS011;383;48.766;9.270;2022-07-29T15:25:06;11.13;;;7.43;;
801;SDS011;383;48.766;9.270;2022-07-29T15:27:33;14.23;;;8.67;;
801;SDS011;383;48.766;9.270;2022-07-29T15:30:01;10.20;;;6.90;;
801;SDS011;383;48.766;9.270;2022-07-29T15:32:28;12.70;;;7.17;;
801;SDS011;383;48.766;9.270;2022-07-29T15:34:55;10.73;;;8.50;;
801;SDS011;383;48.766;9.270;2022-07-29T15:37:21;14.30;;;7.20;;
801;SDS011;383;48.766;9.270;2022-07-29T15:39:48;10.77;;;7.73;;
801;SDS011;383;48.766;9.270;2022-07-29T15:42:15;12.93;;;8.93;;
801;SDS011;383;48.766;9.270;2022-07-29T15:44:42;9.70;;;7.60;;
801;SDS011;383;48.766;9.270;2022-07-29T15:47:10;11.17;;;8.07;;
801;SDS011;383;48.766;9.270;2022-07-29T15:49:37;9.67;;;7.53;;
801;SDS011;383;48.766;9.270;2022-07-29T15:52:05;11.00;;;7.37;;
801;SDS011;383;48.766;9.270;2022-07-29T15:54:33;9.90;;;7.17;;
801;SDS011;383;48.766;9.270;2022-07-29T15:57:01;15.50;;;7.93;;